sensor_id;sensor_type;location;lat;lon;timestamp;P1;durP1;ratioP1;P2;durP2;ratioP2
43994;SDS011;51687;52.160;5.298;2023-10-13T00:01:09;18.65;;;15.73;;
43994;SDS011;51687;52.160;5.298;2023-10-13T00:03:38;17.60;;;14.32;;
43994;SDS011;51687;52.160;5.298;2023-10-13T00:06:06;17.23;;;15.35;;
43994;SDS011;51687;52.160;5.298;2023-10-13T00:08:34;17.30;;;14.68;;
43994;SDS011;51687;52.160;5.298;2023-10-13T00:11:03;18.05;;;16.23;;
43994;SDS011;51687;52.160;5.298;2023-10-13T00:13:31;18.55;;;16.73;;
43994;SDS011;51687;52.160;5.298;2023-10-13T00:16:07;16.63;;;15.13;;
43994;SDS011;51687;52.160;5.298;2023-10-13T00:18:36;17.08;;;15.25;;
43994;SDS011;51687;52.160;5.298;2023-10-13T00:21:10;18.88;;;16.63;;
43994;SDS011;51687;52.160;5.298;2023-10-13T00:23:40;17.42;;;15.73;;
43994;SDS011;51687;52.160;5.298;2023-10-13T00:26:22;17.52;;;15.77;;
43994;SDS011;51687;52.160;5.298;2023-10-13T00:29:02;17.70;;;16.05;;
43994;SDS011;51687;52.160;5.298;2023-10-13T00:31:35;16.73;;;14.80;;
43994;SDS011;51687;52.160;5.298;2023-10-13T00:34:06;17.23;;;15.63;;
43994;SDS011;51687;52.160;5.298;2023-10-13T00:36:46;17.88;;;16.17;;
43994;SDS011;51687;52.160;5.298;2023-10-13T00:39:33;18.20;;;15.90;;
43994;SDS011;51687;52.160;5.298;2023-10-13T00:42:03;18.90;;;16.63;;
43994;SDS011;51687;52.160;5.298;2023-10-13T00:44:33;18.35;;;15.98;;
43994;SDS011;51687;52.160;5.298;2023-10-13T00:47:17;16.58;;;14.85;;
43994;SDS011;51687;52.160;5.298;2023-10-13T00:50:05;15.38;;;13.77;;
43994;SDS011;51687;52.160;5.298;2023-10-13T00:52:37;17.33;;;15.68;;
43994;SDS011;51687;52.160;5.298;2023-10-13T00:55:08;17.67;;;16.05;;
43994;SDS011;51687;52.160;5.298;2023-10-13T00:57:36;22.40;;;16.25;;
43994;SDS011;51687;52.160;5.298;2023-10-13T01:00:03;18.10;;;16.33;;
43994;SDS011;51687;52.160;5.298;2023-10-13T01:02:45;21.27;;;17.02;;
43994;SDS011;51687;52.160;5.298;2023-10-13T01:05:20;18.27;;;16.45;;
43994;SDS011;51687;52.160;5.298;2023-10-13T01:07:49;18.67;;;16.65;;
43994;SDS011;51687;52.160;5.298;2023-10-13T01:10:21;19.02;;;16.67;;
43994;SDS011;51687;52.160;5.298;2023-10-13T01:12:54;17.60;;;16.00;;
43994;SDS011;51687;52.160;5.298;2023-10-13T01:15:21;18.58;;;16.73;;
43994;SDS011;51687;52.160;5.298;2023-10-13T01:17:48;18.27;;;16.40;;
43994;SDS011;51687;52.160;5.298;2023-10-13T01:20:15;17.92;;;16.00;;
43994;SDS011;51687;52.160;5.298;2023-10-13T01:23:08;22.60;;;15.93;;
43994;SDS011;51687;52.160;5.298;2023-10-13T01:25:45;17.42;;;15.57;;
43994;SDS011;51687;52.160;5.298;2023-10-13T01:30:43;16.92;;;15.02;;
43994;SDS011;51687;52.160;5.298;2023-10-13T01:33:19;16.88;;;15.35;;
43994;SDS011;51687;52.160;5.298;2023-10-13T01:35:54;17.00;;;15.32;;
43994;SDS011;51687;52.160;5.298;2023-10-13T01:38:24;15.90;;;14.30;;
43994;SDS011;51687;52.160;5.298;2023-10-13T01:40:54;18.05;;;16.13;;
43994;SDS011;51687;52.160;5.298;2023-10-13T01:43:23;17.52;;;15.68;;
43994;SDS011;51687;52.160;5.298;2023-10-13T01:45:50;17.73;;;16.08;;
43994;SDS011;51687;52.160;5.298;2023-10-13T01:48:17;17.17;;;15.80;;
43994;SDS011;51687;52.160;5.298;2023-10-13T01:50:47;17.58;;;15.93;;
43994;SDS011;51687;52.160;5.298;2023-10-13T01:53:22;17.75;;;15.98;;
43994;SDS011;51687;52.160;5.298;2023-10-13T01:55:49;23.33;;;16.90;;
43994;SDS011;51687;52.160;5.298;2023-10-13T01:58:16;18.25;;;16.30;;
43994;SDS011;51687;52.160;5.298;2023-10-13T02:00:46;22.80;;;16.20;;
43994;SDS011;51687;52.160;5.298;2023-10-13T02:03:14;16.55;;;15.10;;
43994;SDS011;51687;52.160;5.298;2023-10-13T02:05:43;17.65;;;16.02;;
43994;SDS011;51687;52.160;5.298;2023-10-13T02:08:14;21.67;;;15.27;;
43994;SDS011;51687;52.160;5.298;2023-10-13T02:10:49;17.58;;;15.15;;
43994;SDS011;51687;52.160;5.298;2023-10-13T02:13:20;16.95;;;14.10;;
43994;SDS011;51687;52.160;5.298;2023-10-13T02:15:49;15.75;;;14.25;;
43994;SDS011;51687;52.160;5.298;2023-10-13T02:18:20;15.32;;;13.93;;
43994;SDS011;51687;52.160;5.298;2023-10-13T02:20:52;16.20;;;14.60;;
43994;SDS011;51687;52.160;5.298;2023-10-13T02:23:23;15.55;;;13.90;;
43994;SDS011;51687;52.160;5.298;2023-10-13T02:25:51;15.75;;;13.82;;
43994;SDS011;51687;52.160;5.298;2023-10-13T02:28:27;15.77;;;14.02;;
43994;SDS011;51687;52.160;5.298;2023-10-13T02:30:57;20.20;;;13.75;;
43994;SDS011;51687;52.160;5.298;2023-10-13T02:33:24;13.90;;;11.75;;
43994;SDS011;51687;52.160;5.298;2023-10-13T02:36:00;15.38;;;12.27;;
43994;SDS011;51687;52.160;5.298;2023-10-13T02:38:32;14.20;;;12.70;;
43994;SDS011;51687;52.160;5.298;2023-10-13T02:41:12;13.80;;;12.50;;
43994;SDS011;51687;52.160;5.298;2023-10-13T02:43:54;18.33;;;12.50;;
43994;SDS011;51687;52.160;5.298;2023-10-13T02:46:22;17.33;;;11.30;;
43994;SDS011;51687;52.160;5.298;2023-10-13T02:48:50;13.40;;;11.95;;
43994;SDS011;51687;52.160;5.298;2023-10-13T02:51:20;14.40;;;11.80;;
43994;SDS011;51687;52.160;5.298;2023-10-13T02:53:52;13.70;;;12.27;;
43994;SDS011;51687;52.160;5.298;2023-10-13T02:56:19;13.45;;;12.35;;
43994;SDS011;51687;52.160;5.298;2023-10-13T02:58:50;13.07;;;11.75;;
43994;SDS011;51687;52.160;5.298;2023-10-13T03:01:23;16.00;;;12.52;;
43994;SDS011;51687;52.160;5.298;2023-10-13T03:03:55;13.77;;;12.38;;
43994;SDS011;51687;52.160;5.298;2023-10-13T03:06:25;17.80;;;11.88;;
43994;SDS011;51687;52.160;5.298;2023-10-13T03:09:03;14.48;;;12.32;;
43994;SDS011;51687;52.160;5.298;2023-10-13T03:12:00;14.80;;;13.23;;
43994;SDS011;51687;52.160;5.298;2023-10-13T03:14:27;18.65;;;11.40;;
43994;SDS011;51687;52.160;5.298;2023-10-13T03:17:01;14.88;;;12.65;;
43994;SDS011;51687;52.160;5.298;2023-10-13T03:19:32;15.95;;;12.80;;
43994;SDS011;51687;52.160;5.298;2023-10-13T03:22:00;17.05;;;11.95;;
43994;SDS011;51687;52.160;5.298;2023-10-13T03:24:43;12.48;;;11.38;;
43994;SDS011;51687;52.160;5.298;2023-10-13T03:27:14;13.50;;;11.95;;
43994;SDS011;51687;52.160;5.298;2023-10-13T03:29:48;14.38;;;11.63;;
43994;SDS011;51687;52.160;5.298;2023-10-13T03:32:22;17.58;;;12.63;;
43994;SDS011;51687;52.160;5.298;2023-10-13T03:34:53;13.85;;;11.27;;
43994;SDS011;51687;52.160;5.298;2023-10-13T03:37:26;16.02;;;11.55;;
43994;SDS011;51687;52.160;5.298;2023-10-13T03:42:47;14.43;;;11.32;;
43994;SDS011;51687;52.160;5.298;2023-10-13T03:45:34;14.52;;;10.70;;
43994;SDS011;51687;52.160;5.298;2023-10-13T03:48:14;13.25;;;10.40;;
43994;SDS011;51687;52.160;5.298;2023-10-13T03:50:57;15.90;;;11.23;;
43994;SDS011;51687;52.160;5.298;2023-10-13T03:53:36;14.20;;;10.35;;
43994;SDS011;51687;52.160;5.298;2023-10-13T03:56:16;12.80;;;11.50;;
43994;SDS011;51687;52.160;5.298;2023-10-13T03:58:59;10.98;;;9.98;;
43994;SDS011;51687;52.160;5.298;2023-10-13T04:01:33;11.20;;;10.18;;
43994;SDS011;51687;52.160;5.298;2023-10-13T04:04:15;10.95;;;9.85;;
43994;SDS011;51687;52.160;5.298;2023-10-13T04:06:56;11.80;;;10.57;;
43994;SDS011;51687;52.160;5.298;2023-10-13T04:09:35;10.07;;;9.18;;
43994;SDS011;51687;52.160;5.298;2023-10-13T04:12:04;8.27;;;7.35;;
43994;SDS011;51687;52.160;5.298;2023-10-13T04:14:32;11.50;;;8.48;;
43994;SDS011;51687;52.160;5.298;2023-10-13T04:17:20;11.95;;;8.25;;
43994;SDS011;51687;52.160;5.298;2023-10-13T04:19:57;11.80;;;8.80;;
43994;SDS011;51687;52.160;5.298;2023-10-13T04:22:37;9.50;;;8.25;;
43994;SDS011;51687;52.160;5.298;2023-10-13T04:25:17;18.58;;;8.90;;
43994;SDS011;51687;52.160;5.298;2023-10-13T04:28:14;9.73;;;8.63;;
43994;SDS011;51687;52.160;5.298;2023-10-13T04:30:47;13.07;;;8.40;;
43994;SDS011;51687;52.160;5.298;2023-10-13T04:33:31;9.30;;;8.40;;
43994;SDS011;51687;52.160;5.298;2023-10-13T04:38:49;9.65;;;8.02;;
43994;SDS011;51687;52.160;5.298;2023-10-13T04:41:32;9.52;;;8.63;;
43994;SDS011;51687;52.160;5.298;2023-10-13T04:44:23;10.07;;;9.07;;
43994;SDS011;51687;52.160;5.298;2023-10-13T04:47:09;8.45;;;7.75;;
43994;SDS011;51687;52.160;5.298;2023-10-13T04:49:44;8.23;;;7.45;;
43994;SDS011;51687;52.160;5.298;2023-10-13T04:52:14;8.73;;;7.82;;
43994;SDS011;51687;52.160;5.298;2023-10-13T04:55:00;7.63;;;6.90;;
43994;SDS011;51687;52.160;5.298;2023-10-13T04:57:50;9.82;;;6.63;;
43994;SDS011;51687;52.160;5.298;2023-10-13T05:00:26;7.68;;;6.97;;
43994;SDS011;51687;52.160;5.298;2023-10-13T05:03:31;7.00;;;6.20;;
43994;SDS011;51687;52.160;5.298;2023-10-13T05:06:20;7.65;;;6.78;;
43994;SDS011;51687;52.160;5.298;2023-10-13T05:09:15;7.57;;;6.88;;
43994;SDS011;51687;52.160;5.298;2023-10-13T05:12:01;8.93;;;7.32;;
43994;SDS011;51687;52.160;5.298;2023-10-13T05:14:46;9.50;;;8.50;;
43994;SDS011;51687;52.160;5.298;2023-10-13T05:17:32;9.85;;;8.68;;
43994;SDS011;51687;52.160;5.298;2023-10-13T05:20:17;10.35;;;9.45;;
43994;SDS011;51687;52.160;5.298;2023-10-13T05:23:03;10.88;;;9.93;;
43994;SDS011;51687;52.160;5.298;2023-10-13T05:26:08;10.88;;;9.80;;
43994;SDS011;51687;52.160;5.298;2023-10-13T05:29:01;11.23;;;9.82;;
43994;SDS011;51687;52.160;5.298;2023-10-13T05:31:54;10.88;;;9.82;;
43994;SDS011;51687;52.160;5.298;2023-10-13T05:34:46;10.50;;;8.80;;
43994;SDS011;51687;52.160;5.298;2023-10-13T05:37:31;11.38;;;10.15;;
43994;SDS011;51687;52.160;5.298;2023-10-13T05:40:17;10.65;;;8.90;;
43994;SDS011;51687;52.160;5.298;2023-10-13T05:43:03;12.68;;;9.57;;
43994;SDS011;51687;52.160;5.298;2023-10-13T05:45:48;9.70;;;8.65;;
43994;SDS011;51687;52.160;5.298;2023-10-13T05:48:34;9.82;;;7.80;;
43994;SDS011;51687;52.160;5.298;2023-10-13T05:51:09;14.20;;;7.55;;
43994;SDS011;51687;52.160;5.298;2023-10-13T05:54:08;11.38;;;6.88;;
43994;SDS011;51687;52.160;5.298;2023-10-13T05:56:46;17.42;;;6.55;;
43994;SDS011;51687;52.160;5.298;2023-10-13T05:59:33;13.00;;;6.15;;
43994;SDS011;51687;52.160;5.298;2023-10-13T06:02:20;10.10;;;5.70;;
43994;SDS011;51687;52.160;5.298;2023-10-13T06:05:07;13.68;;;5.65;;
43994;SDS011;51687;52.160;5.298;2023-10-13T06:07:55;15.93;;;6.43;;
43994;SDS011;51687;52.160;5.298;2023-10-13T06:10:41;13.18;;;6.35;;
43994;SDS011;51687;52.160;5.298;2023-10-13T06:13:27;19.90;;;6.50;;
43994;SDS011;51687;52.160;5.298;2023-10-13T06:16:14;16.83;;;6.38;;
43994;SDS011;51687;52.160;5.298;2023-10-13T06:19:02;13.15;;;5.72;;
43994;SDS011;51687;52.160;5.298;2023-10-13T06:21:48;13.63;;;6.63;;
43994;SDS011;51687;52.160;5.298;2023-10-13T06:24:34;13.13;;;7.22;;
43994;SDS011;51687;52.160;5.298;2023-10-13T06:27:19;13.30;;;6.40;;
43994;SDS011;51687;52.160;5.298;2023-10-13T06:30:18;13.43;;;7.10;;
43994;SDS011;51687;52.160;5.298;2023-10-13T06:32:45;14.63;;;6.20;;
43994;SDS011;51687;52.160;5.298;2023-10-13T06:35:12;14.82;;;6.53;;
43994;SDS011;51687;52.160;5.298;2023-10-13T06:37:49;9.38;;;7.10;;
43994;SDS011;51687;52.160;5.298;2023-10-13T06:40:17;12.73;;;7.43;;
43994;SDS011;51687;52.160;5.298;2023-10-13T06:43:03;14.02;;;6.82;;
43994;SDS011;51687;52.160;5.298;2023-10-13T06:45:43;11.05;;;6.25;;
43994;SDS011;51687;52.160;5.298;2023-10-13T06:48:17;14.73;;;8.15;;
43994;SDS011;51687;52.160;5.298;2023-10-13T06:50:49;11.30;;;7.30;;
43994;SDS011;51687;52.160;5.298;2023-10-13T06:53:18;11.18;;;7.13;;
43994;SDS011;51687;52.160;5.298;2023-10-13T06:55:46;12.25;;;7.88;;
43994;SDS011;51687;52.160;5.298;2023-10-13T06:58:19;11.77;;;7.90;;
43994;SDS011;51687;52.160;5.298;2023-10-13T07:00:50;10.27;;;8.63;;
43994;SDS011;51687;52.160;5.298;2023-10-13T07:03:24;13.70;;;10.18;;
43994;SDS011;51687;52.160;5.298;2023-10-13T07:05:51;15.52;;;10.45;;
43994;SDS011;51687;52.160;5.298;2023-10-13T07:08:19;13.43;;;12.13;;
43994;SDS011;51687;52.160;5.298;2023-10-13T07:10:51;17.08;;;13.70;;
43994;SDS011;51687;52.160;5.298;2023-10-13T07:13:18;20.02;;;15.43;;
43994;SDS011;51687;52.160;5.298;2023-10-13T07:15:46;16.77;;;15.27;;
43994;SDS011;51687;52.160;5.298;2023-10-13T07:18:14;18.33;;;16.70;;
43994;SDS011;51687;52.160;5.298;2023-10-13T07:20:43;26.80;;;18.13;;
43994;SDS011;51687;52.160;5.298;2023-10-13T07:23:13;22.02;;;17.23;;
43994;SDS011;51687;52.160;5.298;2023-10-13T07:25:53;19.63;;;17.80;;
43994;SDS011;51687;52.160;5.298;2023-10-13T07:28:23;18.77;;;16.98;;
43994;SDS011;51687;52.160;5.298;2023-10-13T07:30:50;23.23;;;16.33;;
43994;SDS011;51687;52.160;5.298;2023-10-13T07:33:20;20.60;;;17.35;;
43994;SDS011;51687;52.160;5.298;2023-10-13T07:35:47;18.05;;;15.77;;
43994;SDS011;51687;52.160;5.298;2023-10-13T07:38:25;17.95;;;15.85;;
43994;SDS011;51687;52.160;5.298;2023-10-13T07:40:53;17.23;;;14.10;;
43994;SDS011;51687;52.160;5.298;2023-10-13T07:43:19;24.08;;;13.80;;
43994;SDS011;51687;52.160;5.298;2023-10-13T07:45:48;24.38;;;13.68;;
43994;SDS011;51687;52.160;5.298;2023-10-13T07:48:19;15.20;;;12.43;;
43994;SDS011;51687;52.160;5.298;2023-10-13T07:50:47;21.33;;;13.13;;
43994;SDS011;51687;52.160;5.298;2023-10-13T07:53:27;18.48;;;12.65;;
43994;SDS011;51687;52.160;5.298;2023-10-13T07:56:02;17.00;;;11.70;;
43994;SDS011;51687;52.160;5.298;2023-10-13T07:58:31;18.60;;;11.32;;
43994;SDS011;51687;52.160;5.298;2023-10-13T08:00:59;25.15;;;12.88;;
43994;SDS011;51687;52.160;5.298;2023-10-13T08:03:35;16.80;;;10.63;;
43994;SDS011;51687;52.160;5.298;2023-10-13T08:06:12;17.55;;;10.45;;
43994;SDS011;51687;52.160;5.298;2023-10-13T08:08:47;15.77;;;11.82;;
43994;SDS011;51687;52.160;5.298;2023-10-13T08:11:20;19.70;;;10.30;;
43994;SDS011;51687;52.160;5.298;2023-10-13T08:16:35;15.90;;;9.38;;
43994;SDS011;51687;52.160;5.298;2023-10-13T08:19:26;17.42;;;8.15;;
43994;SDS011;51687;52.160;5.298;2023-10-13T08:21:54;16.50;;;9.05;;
43994;SDS011;51687;52.160;5.298;2023-10-13T08:24:26;15.77;;;8.73;;
43994;SDS011;51687;52.160;5.298;2023-10-13T08:27:06;18.30;;;9.38;;
43994;SDS011;51687;52.160;5.298;2023-10-13T08:29:52;22.38;;;8.57;;
43994;SDS011;51687;52.160;5.298;2023-10-13T08:32:22;13.50;;;8.23;;
43994;SDS011;51687;52.160;5.298;2023-10-13T08:34:53;19.02;;;7.68;;
43994;SDS011;51687;52.160;5.298;2023-10-13T08:37:21;18.83;;;8.73;;
43994;SDS011;51687;52.160;5.298;2023-10-13T08:39:48;12.48;;;8.13;;
43994;SDS011;51687;52.160;5.298;2023-10-13T08:42:48;11.32;;;7.03;;
43994;SDS011;51687;52.160;5.298;2023-10-13T08:45:41;17.05;;;7.43;;
43994;SDS011;51687;52.160;5.298;2023-10-13T08:48:11;14.80;;;8.02;;
43994;SDS011;51687;52.160;5.298;2023-10-13T08:50:45;11.02;;;7.63;;
43994;SDS011;51687;52.160;5.298;2023-10-13T08:59:00;9.77;;;7.82;;
43994;SDS011;51687;52.160;5.298;2023-10-13T09:01:36;13.70;;;7.78;;
43994;SDS011;51687;52.160;5.298;2023-10-13T09:04:25;19.33;;;6.68;;
43994;SDS011;51687;52.160;5.298;2023-10-13T09:07:04;16.50;;;7.45;;
43994;SDS011;51687;52.160;5.298;2023-10-13T09:09:48;14.38;;;6.30;;
43994;SDS011;51687;52.160;5.298;2023-10-13T09:12:22;18.30;;;7.10;;
43994;SDS011;51687;52.160;5.298;2023-10-13T09:15:03;22.25;;;7.65;;
43994;SDS011;51687;52.160;5.298;2023-10-13T09:17:46;14.13;;;7.30;;
43994;SDS011;51687;52.160;5.298;2023-10-13T09:20:30;15.55;;;7.13;;
43994;SDS011;51687;52.160;5.298;2023-10-13T09:23:07;18.02;;;7.18;;
43994;SDS011;51687;52.160;5.298;2023-10-13T09:26:11;17.92;;;7.45;;
43994;SDS011;51687;52.160;5.298;2023-10-13T09:28:38;14.93;;;6.80;;
43994;SDS011;51687;52.160;5.298;2023-10-13T09:31:05;19.63;;;8.30;;
43994;SDS011;51687;52.160;5.298;2023-10-13T09:33:33;16.35;;;7.18;;
43994;SDS011;51687;52.160;5.298;2023-10-13T09:36:03;19.30;;;7.57;;
43994;SDS011;51687;52.160;5.298;2023-10-13T09:38:35;20.20;;;7.72;;
43994;SDS011;51687;52.160;5.298;2023-10-13T09:41:05;12.30;;;6.50;;
43994;SDS011;51687;52.160;5.298;2023-10-13T09:43:46;17.17;;;6.97;;
43994;SDS011;51687;52.160;5.298;2023-10-13T09:46:15;18.35;;;6.78;;
43994;SDS011;51687;52.160;5.298;2023-10-13T09:48:45;13.95;;;7.03;;
43994;SDS011;51687;52.160;5.298;2023-10-13T09:51:14;13.38;;;6.88;;
43994;SDS011;51687;52.160;5.298;2023-10-13T09:53:52;13.95;;;6.13;;
43994;SDS011;51687;52.160;5.298;2023-10-13T09:56:31;21.08;;;8.50;;
43994;SDS011;51687;52.160;5.298;2023-10-13T09:59:19;14.10;;;6.65;;
43994;SDS011;51687;52.160;5.298;2023-10-13T10:02:04;16.83;;;7.88;;
43994;SDS011;51687;52.160;5.298;2023-10-13T10:04:51;17.30;;;7.95;;
43994;SDS011;51687;52.160;5.298;2023-10-13T10:07:28;14.20;;;6.75;;
43994;SDS011;51687;52.160;5.298;2023-10-13T10:10:00;23.38;;;7.18;;
43994;SDS011;51687;52.160;5.298;2023-10-13T10:15:09;18.00;;;7.00;;
43994;SDS011;51687;52.160;5.298;2023-10-13T10:17:46;11.13;;;6.80;;
43994;SDS011;51687;52.160;5.298;2023-10-13T10:20:16;11.07;;;6.90;;
43994;SDS011;51687;52.160;5.298;2023-10-13T10:22:59;12.80;;;6.85;;
43994;SDS011;51687;52.160;5.298;2023-10-13T10:25:30;20.00;;;7.22;;
43994;SDS011;51687;52.160;5.298;2023-10-13T10:28:02;19.05;;;7.13;;
43994;SDS011;51687;52.160;5.298;2023-10-13T10:30:35;13.40;;;6.68;;
43994;SDS011;51687;52.160;5.298;2023-10-13T10:33:08;12.20;;;7.70;;
43994;SDS011;51687;52.160;5.298;2023-10-13T10:35:43;19.65;;;7.20;;
43994;SDS011;51687;52.160;5.298;2023-10-13T10:38:12;12.93;;;7.13;;
43994;SDS011;51687;52.160;5.298;2023-10-13T10:40:55;17.42;;;6.88;;
43994;SDS011;51687;52.160;5.298;2023-10-13T10:43:35;15.32;;;7.15;;
43994;SDS011;51687;52.160;5.298;2023-10-13T10:48:43;15.32;;;6.35;;
43994;SDS011;51687;52.160;5.298;2023-10-13T10:51:12;16.65;;;6.55;;
43994;SDS011;51687;52.160;5.298;2023-10-13T10:53:42;16.95;;;6.55;;
43994;SDS011;51687;52.160;5.298;2023-10-13T10:56:13;14.65;;;7.68;;
43994;SDS011;51687;52.160;5.298;2023-10-13T10:58:49;19.65;;;7.97;;
43994;SDS011;51687;52.160;5.298;2023-10-13T11:01:22;24.05;;;6.97;;
43994;SDS011;51687;52.160;5.298;2023-10-13T11:04:00;11.32;;;7.00;;
43994;SDS011;51687;52.160;5.298;2023-10-13T11:06:35;16.15;;;7.47;;
43994;SDS011;51687;52.160;5.298;2023-10-13T11:09:12;8.32;;;6.93;;
43994;SDS011;51687;52.160;5.298;2023-10-13T11:14:42;18.50;;;7.22;;
43994;SDS011;51687;52.160;5.298;2023-10-13T11:17:18;11.27;;;7.10;;
43994;SDS011;51687;52.160;5.298;2023-10-13T11:19:52;15.40;;;7.47;;
43994;SDS011;51687;52.160;5.298;2023-10-13T11:22:20;10.13;;;6.95;;
43994;SDS011;51687;52.160;5.298;2023-10-13T11:25:00;14.07;;;7.07;;
43994;SDS011;51687;52.160;5.298;2023-10-13T11:27:41;15.48;;;6.55;;
43994;SDS011;51687;52.160;5.298;2023-10-13T11:30:17;15.35;;;7.00;;
43994;SDS011;51687;52.160;5.298;2023-10-13T11:32:57;25.30;;;8.60;;
43994;SDS011;51687;52.160;5.298;2023-10-13T11:35:33;17.77;;;7.35;;
43994;SDS011;51687;52.160;5.298;2023-10-13T11:38:28;13.45;;;6.93;;
43994;SDS011;51687;52.160;5.298;2023-10-13T11:41:09;11.80;;;6.30;;
43994;SDS011;51687;52.160;5.298;2023-10-13T11:43:39;20.60;;;6.60;;
43994;SDS011;51687;52.160;5.298;2023-10-13T11:46:26;12.00;;;6.03;;
43994;SDS011;51687;52.160;5.298;2023-10-13T11:49:03;13.07;;;6.78;;
43994;SDS011;51687;52.160;5.298;2023-10-13T11:54:17;12.10;;;6.40;;
43994;SDS011;51687;52.160;5.298;2023-10-13T11:56:45;12.70;;;6.63;;
43994;SDS011;51687;52.160;5.298;2023-10-13T11:59:13;13.57;;;6.50;;
43994;SDS011;51687;52.160;5.298;2023-10-13T12:01:50;23.73;;;7.30;;
43994;SDS011;51687;52.160;5.298;2023-10-13T12:04:36;17.25;;;7.45;;
43994;SDS011;51687;52.160;5.298;2023-10-13T12:07:10;14.10;;;6.78;;
43994;SDS011;51687;52.160;5.298;2023-10-13T12:09:55;16.10;;;6.82;;
43994;SDS011;51687;52.160;5.298;2023-10-13T12:12:25;19.55;;;6.47;;
43994;SDS011;51687;52.160;5.298;2023-10-13T12:14:53;14.90;;;7.05;;
43994;SDS011;51687;52.160;5.298;2023-10-13T12:17:25;17.95;;;7.38;;
43994;SDS011;51687;52.160;5.298;2023-10-13T12:20:04;22.98;;;7.38;;
43994;SDS011;51687;52.160;5.298;2023-10-13T12:22:32;13.75;;;7.88;;
43994;SDS011;51687;52.160;5.298;2023-10-13T12:25:05;14.88;;;6.22;;
43994;SDS011;51687;52.160;5.298;2023-10-13T12:27:48;14.02;;;6.38;;
43994;SDS011;51687;52.160;5.298;2023-10-13T12:30:16;17.05;;;7.40;;
43994;SDS011;51687;52.160;5.298;2023-10-13T12:32:51;22.83;;;7.90;;
43994;SDS011;51687;52.160;5.298;2023-10-13T12:35:32;13.75;;;7.03;;
43994;SDS011;51687;52.160;5.298;2023-10-13T12:38:11;15.27;;;7.10;;
43994;SDS011;51687;52.160;5.298;2023-10-13T12:41:06;19.65;;;6.90;;
43994;SDS011;51687;52.160;5.298;2023-10-13T12:44:00;15.60;;;6.55;;
43994;SDS011;51687;52.160;5.298;2023-10-13T12:46:46;15.82;;;7.03;;
43994;SDS011;51687;52.160;5.298;2023-10-13T12:49:35;15.18;;;6.95;;
43994;SDS011;51687;52.160;5.298;2023-10-13T12:52:09;16.95;;;7.25;;
43994;SDS011;51687;52.160;5.298;2023-10-13T12:54:43;13.57;;;6.57;;
43994;SDS011;51687;52.160;5.298;2023-10-13T12:57:14;13.45;;;7.35;;
43994;SDS011;51687;52.160;5.298;2023-10-13T12:59:42;13.73;;;6.00;;
43994;SDS011;51687;52.160;5.298;2023-10-13T13:02:09;16.08;;;6.75;;
43994;SDS011;51687;52.160;5.298;2023-10-13T13:04:42;21.63;;;7.22;;
43994;SDS011;51687;52.160;5.298;2023-10-13T13:07:14;21.48;;;7.50;;
43994;SDS011;51687;52.160;5.298;2023-10-13T13:09:42;15.45;;;6.82;;
43994;SDS011;51687;52.160;5.298;2023-10-13T13:12:09;16.15;;;7.57;;
43994;SDS011;51687;52.160;5.298;2023-10-13T13:14:39;15.15;;;7.00;;
43994;SDS011;51687;52.160;5.298;2023-10-13T13:17:13;18.80;;;7.60;;
43994;SDS011;51687;52.160;5.298;2023-10-13T13:22:08;17.35;;;7.50;;
43994;SDS011;51687;52.160;5.298;2023-10-13T13:24:38;22.42;;;7.68;;
43994;SDS011;51687;52.160;5.298;2023-10-13T13:27:15;12.88;;;6.65;;
43994;SDS011;51687;52.160;5.298;2023-10-13T13:29:46;13.05;;;6.50;;
43994;SDS011;51687;52.160;5.298;2023-10-13T13:32:13;14.57;;;7.05;;
43994;SDS011;51687;52.160;5.298;2023-10-13T13:34:45;17.40;;;7.80;;
43994;SDS011;51687;52.160;5.298;2023-10-13T13:37:21;15.35;;;7.43;;
43994;SDS011;51687;52.160;5.298;2023-10-13T13:39:48;22.05;;;7.60;;
43994;SDS011;51687;52.160;5.298;2023-10-13T13:42:19;17.08;;;7.57;;
43994;SDS011;51687;52.160;5.298;2023-10-13T13:44:46;20.58;;;7.30;;
43994;SDS011;51687;52.160;5.298;2023-10-13T13:47:14;20.08;;;8.32;;
43994;SDS011;51687;52.160;5.298;2023-10-13T13:49:42;13.80;;;8.15;;
43994;SDS011;51687;52.160;5.298;2023-10-13T13:52:32;19.95;;;8.88;;
43994;SDS011;51687;52.160;5.298;2023-10-13T13:55:12;18.52;;;7.95;;
43994;SDS011;51687;52.160;5.298;2023-10-13T13:57:43;19.10;;;7.90;;
43994;SDS011;51687;52.160;5.298;2023-10-13T14:00:13;23.25;;;8.23;;
43994;SDS011;51687;52.160;5.298;2023-10-13T14:02:43;14.20;;;8.18;;
43994;SDS011;51687;52.160;5.298;2023-10-13T14:05:14;18.92;;;7.70;;
43994;SDS011;51687;52.160;5.298;2023-10-13T14:10:09;15.68;;;7.75;;
43994;SDS011;51687;52.160;5.298;2023-10-13T14:12:45;15.98;;;7.88;;
43994;SDS011;51687;52.160;5.298;2023-10-13T14:15:14;17.52;;;9.90;;
43994;SDS011;51687;52.160;5.298;2023-10-13T14:17:50;21.88;;;9.13;;
43994;SDS011;51687;52.160;5.298;2023-10-13T14:20:17;17.17;;;8.88;;
43994;SDS011;51687;52.160;5.298;2023-10-13T14:22:45;16.85;;;8.60;;
43994;SDS011;51687;52.160;5.298;2023-10-13T14:25:14;12.93;;;8.23;;
43994;SDS011;51687;52.160;5.298;2023-10-13T14:27:42;20.63;;;7.65;;
43994;SDS011;51687;52.160;5.298;2023-10-13T14:30:10;15.43;;;7.88;;
43994;SDS011;51687;52.160;5.298;2023-10-13T14:32:46;16.95;;;9.80;;
43994;SDS011;51687;52.160;5.298;2023-10-13T14:35:13;14.57;;;8.88;;
43994;SDS011;51687;52.160;5.298;2023-10-13T14:37:41;19.85;;;8.98;;
43994;SDS011;51687;52.160;5.298;2023-10-13T14:40:08;18.52;;;8.95;;
43994;SDS011;51687;52.160;5.298;2023-10-13T14:42:42;16.00;;;8.85;;
43994;SDS011;51687;52.160;5.298;2023-10-13T14:45:10;13.18;;;10.88;;
43994;SDS011;51687;52.160;5.298;2023-10-13T14:47:43;16.77;;;8.60;;
43994;SDS011;51687;52.160;5.298;2023-10-13T14:50:11;11.25;;;8.45;;
43994;SDS011;51687;52.160;5.298;2023-10-13T14:52:47;18.15;;;9.60;;
43994;SDS011;51687;52.160;5.298;2023-10-13T14:55:15;13.60;;;8.90;;
43994;SDS011;51687;52.160;5.298;2023-10-13T14:57:49;17.50;;;9.32;;
43994;SDS011;51687;52.160;5.298;2023-10-13T15:00:18;18.13;;;7.68;;
43994;SDS011;51687;52.160;5.298;2023-10-13T15:02:52;18.15;;;7.65;;
43994;SDS011;51687;52.160;5.298;2023-10-13T15:05:21;16.40;;;8.35;;
43994;SDS011;51687;52.160;5.298;2023-10-13T15:07:48;19.45;;;8.77;;
43994;SDS011;51687;52.160;5.298;2023-10-13T15:10:15;13.65;;;8.05;;
43994;SDS011;51687;52.160;5.298;2023-10-13T15:12:43;25.27;;;8.83;;
43994;SDS011;51687;52.160;5.298;2023-10-13T15:15:13;14.00;;;9.30;;
43994;SDS011;51687;52.160;5.298;2023-10-13T15:17:45;15.80;;;8.15;;
43994;SDS011;51687;52.160;5.298;2023-10-13T15:20:13;18.27;;;9.23;;
43994;SDS011;51687;52.160;5.298;2023-10-13T15:22:43;14.35;;;9.10;;
43994;SDS011;51687;52.160;5.298;2023-10-13T15:25:10;18.05;;;9.02;;
43994;SDS011;51687;52.160;5.298;2023-10-13T15:27:58;16.08;;;9.18;;
43994;SDS011;51687;52.160;5.298;2023-10-13T15:30:29;18.05;;;9.55;;
43994;SDS011;51687;52.160;5.298;2023-10-13T15:33:21;17.67;;;9.63;;
43994;SDS011;51687;52.160;5.298;2023-10-13T15:35:49;19.33;;;9.77;;
43994;SDS011;51687;52.160;5.298;2023-10-13T15:38:17;19.50;;;9.35;;
43994;SDS011;51687;52.160;5.298;2023-10-13T15:40:47;20.23;;;9.90;;
43994;SDS011;51687;52.160;5.298;2023-10-13T15:43:21;15.25;;;8.85;;
43994;SDS011;51687;52.160;5.298;2023-10-13T15:45:48;22.00;;;10.32;;
43994;SDS011;51687;52.160;5.298;2023-10-13T15:48:15;21.50;;;11.15;;
43994;SDS011;51687;52.160;5.298;2023-10-13T15:50:46;21.65;;;10.15;;